Time;durP1;ratioP1;P1;durP2;ratioP2;P2;SDS_P1;SDS_P2;PMS_P1;PMS_P2;Temp;Humidity;BMP_temperature;BMP_pressure;BME280_temperature;BME280_humidity;BME280_pressure;Samples;Min_cycle;Max_cycle;Signal;HPM_P1;HPM_P2
2022/10/03 00:02:11;;;;;;;6.32;2.83;;;18.40;81.70;;;;;;4995042;28;20275;-84
2022/10/03 00:04:43;;;;;;;6.45;3.30;;;18.40;81.60;;;;;;5019205;28;20022;-84
2022/10/03 00:07:20;;;;;;;4.28;2.72;;;18.40;81.70;;;;;;4992155;28;20125;-84
2022/10/03 00:10:09;;;;;;;6.40;2.33;;;18.40;81.60;;;;;;4998949;28;20038;-84
2022/10/03 00:12:59;;;;;;;6.28;2.75;;;18.40;81.80;;;;;;4985006;28;20041;-84
2022/10/03 00:15:41;;;;;;;5.38;2.30;;;18.40;81.80;;;;;;4998291;28;20065;-84
2022/10/03 00:18:22;;;;;;;4.50;2.80;;;18.40;81.80;;;;;;4997614;28;20030;-84
2022/10/03 00:21:24;;;;;;;6.30;2.90;;;18.40;81.90;;;;;;4999408;28;20029;-83
2022/10/03 00:24:03;;;;;;;7.50;3.38;;;18.40;81.90;;;;;;5006882;28;20116;-83
2022/10/03 00:26:40;;;;;;;5.93;2.90;;;18.40;81.80;;;;;;4999193;28;20070;-83
2022/10/03 00:29:44;;;;;;;5.30;3.10;;;18.30;82.20;;;;;;4995554;28;20030;-83
2022/10/03 00:32:44;;;;;;;8.93;3.25;;;18.30;82.30;;;;;;4938852;29;20024;-84
2022/10/03 00:35:30;;;;;;;7.03;3.13;;;18.30;82.20;;;;;;4997398;28;20026;-84
2022/10/03 00:38:30;;;;;;;10.32;3.20;;;18.30;82.10;;;;;;4981500;28;20030;-83
2022/10/03 00:41:33;;;;;;;8.35;3.05;;;18.30;81.90;;;;;;4997478;28;20038;-84
2022/10/03 00:44:27;;;;;;;8.13;3.58;;;18.30;82.00;;;;;;5013832;28;20100;-84
2022/10/03 00:47:18;;;;;;;5.38;2.78;;;18.40;82.00;;;;;;5016190;28;20030;-84
2022/10/03 00:49:43;;;;;;;10.63;2.63;;;18.30;82.40;;;;;;5017951;28;20432;-84
2022/10/03 00:52:27;;;;;;;10.43;3.45;;;18.10;82.30;;;;;;5002324;28;20038;-84
2022/10/03 00:55:13;;;;;;;9.38;3.08;;;18.20;82.80;;;;;;4998907;28;20385;-84
2022/10/03 00:58:00;;;;;;;4.47;2.17;;;18.10;82.80;;;;;;4979390;28;20133;-83
2022/10/03 01:00:31;;;;;;;8.25;2.88;;;18.20;82.50;;;;;;4981493;28;20477;-83
2022/10/03 01:03:04;;;;;;;10.55;2.47;;;18.20;82.40;;;;;;4997210;28;20033;-84
2022/10/03 01:06:14;;;;;;;5.78;2.50;;;18.10;82.50;;;;;;4998332;28;20018;-83
2022/10/03 01:09:15;;;;;;;4.72;2.47;;;18.20;82.60;;;;;;4935458;29;20055;-83
2022/10/03 01:12:09;;;;;;;8.45;2.92;;;18.10;82.40;;;;;;4996257;28;20054;-84
2022/10/03 01:14:48;;;;;;;4.03;2.13;;;18.20;82.20;;;;;;4996700;28;20472;-83
2022/10/03 01:17:18;;;;;;;6.88;2.88;;;18.20;82.10;;;;;;4998432;28;20030;-83
2022/10/03 01:19:56;;;;;;;5.55;2.40;;;18.30;82.00;;;;;;4995289;28;20065;-84
2022/10/03 01:22:52;;;;;;;7.45;3.25;;;18.20;81.90;;;;;;5002860;28;20576;-84
2022/10/03 01:25:18;;;;;;;5.75;2.50;;;18.20;81.90;;;;;;5014881;28;20092;-84
2022/10/03 01:31:02;;;;;;;7.45;2.40;;;18.30;81.80;;;;;;5015626;28;20045;-84
2022/10/03 01:33:55;;;;;;;8.10;3.10;;;18.20;81.80;;;;;;4997048;28;20128;-84
2022/10/03 01:36:31;;;;;;;7.03;2.78;;;18.20;81.90;;;;;;5002475;28;20035;-84
2022/10/03 01:39:32;;;;;;;9.98;3.50;;;18.30;81.70;;;;;;4995047;28;20030;-83
2022/10/03 01:42:24;;;;;;;10.18;3.40;;;18.20;81.80;;;;;;4996577;28;20046;-83
2022/10/03 01:45:25;;;;;;;9.15;3.05;;;18.20;81.80;;;;;;4995233;28;20026;-84
2022/10/03 01:48:05;;;;;;;8.02;2.90;;;18.20;81.80;;;;;;4997714;28;20062;-84
2022/10/03 01:50:54;;;;;;;6.90;3.20;;;18.10;81.90;;;;;;5015880;28;20036;-84
2022/10/03 01:53:35;;;;;;;9.02;2.90;;;18.10;82.00;;;;;;5016469;28;20033;-83
2022/10/03 01:56:44;;;;;;;;;;;;;;;;;;;;;
2022/10/03 01:59:16;;;;;;;10.48;3.88;;;18.20;82.00;;;;;;5016090;28;20159;-84
2022/10/03 02:01:50;;;;;;;13.30;3.55;;;18.20;81.80;;;;;;5015534;28;20029;-84
2022/10/03 02:04:48;;;;;;;11.10;3.67;;;18.20;81.80;;;;;;5016193;28;20088;-84
2022/10/03 02:07:33;;;;;;;16.30;3.95;;;18.20;81.70;;;;;;4995795;28;20026;-83
2022/10/03 02:09:58;;;;;;;9.95;3.53;;;18.10;81.80;;;;;;4996546;28;20054;-84
2022/10/03 02:12:34;;;;;;;12.48;3.70;;;18.10;81.80;;;;;;4996429;28;20563;-83
2022/10/03 02:15:23;;;;;;;10.70;4.28;;;18.00;81.90;;;;;;5000378;28;20440;-84
2022/10/03 02:17:56;;;;;;;6.13;3.85;;;18.00;82.00;;;;;;5002386;28;20463;-83
2022/10/03 02:20:57;;;;;;;10.45;3.53;;;18.10;82.10;;;;;;5016362;28;20037;-84
2022/10/03 02:23:42;;;;;;;14.45;4.55;;;18.00;82.30;;;;;;5021173;28;20069;-84
2022/10/03 02:26:08;;;;;;;14.77;4.75;;;18.00;82.30;;;;;;5023132;28;20056;-84
2022/10/03 02:28:43;;;;;;;11.77;5.18;;;18.00;82.20;;;;;;5021427;28;20026;-83
2022/10/03 02:31:51;;;;;;;7.25;4.30;;;18.10;82.10;;;;;;5006228;28;20037;-84
2022/10/03 02:34:22;;;;;;;11.00;4.78;;;18.00;82.20;;;;;;5021996;28;20025;-84
2022/10/03 02:37:26;;;;;;;11.90;5.43;;;18.10;82.10;;;;;;5024068;28;20037;-83
2022/10/03 02:40:29;;;;;;;13.43;5.20;;;17.90;82.60;;;;;;5004089;28;20065;-83
2022/10/03 02:43:40;;;;;;;12.10;5.75;;;17.90;82.60;;;;;;4986462;28;20038;-84
2022/10/03 02:46:22;;;;;;;17.92;5.65;;;17.90;82.60;;;;;;5002131;28;20089;-84
2022/10/03 02:49:20;;;;;;;9.00;4.75;;;17.90;82.60;;;;;;5004224;28;20054;-84
2022/10/03 02:52:06;;;;;;;8.93;4.47;;;17.90;82.40;;;;;;5002672;28;20129;-84
2022/10/03 02:54:38;;;;;;;14.18;5.28;;;17.90;82.40;;;;;;5003983;28;20085;-84
2022/10/03 02:57:24;;;;;;;12.63;4.85;;;17.90;82.20;;;;;;5001002;28;20088;-84
2022/10/03 02:59:55;;;;;;;12.18;5.35;;;17.90;82.10;;;;;;5004476;28;20111;-84
2022/10/03 03:02:41;;;;;;;13.07;4.75;;;17.80;82.00;;;;;;5001850;28;20037;-84
2022/10/03 03:05:17;;;;;;;15.43;5.03;;;17.80;81.80;;;;;;5016113;28;20112;-84
2022/10/03 03:08:12;;;;;;;13.73;5.28;;;17.80;81.80;;;;;;5021053;28;20038;-84
2022/10/03 03:10:38;;;;;;;13.15;5.93;;;17.70;81.80;;;;;;4923367;29;20088;-84
2022/10/03 03:13:28;;;;;;;18.23;4.95;;;17.70;81.80;;;;;;4915338;29;20499;-84
2022/10/03 03:16:14;;;;;;;;;;;17.60;81.70;;;;;;4998596;28;20216;-84
2022/10/03 03:18:53;;;;;;;12.52;5.30;;;17.60;81.70;;;;;;5006236;28;19971;-85
2022/10/03 03:21:56;;;;;;;11.13;5.57;;;17.60;81.80;;;;;;5019545;28;20044;-84
2022/10/03 03:24:22;;;;;;;12.35;5.20;;;17.60;81.80;;;;;;5022503;28;20050;-84
2022/10/03 03:27:03;;;;;;;10.60;4.88;;;17.60;81.80;;;;;;5001003;28;20096;-84
2022/10/03 03:29:46;;;;;;;10.70;5.00;;;17.60;81.80;;;;;;5019922;28;20393;-84
2022/10/03 03:32:30;;;;;;;13.05;5.13;;;17.60;82.10;;;;;;5000319;28;20455;-84
2022/10/03 03:35:17;;;;;;;13.15;5.43;;;17.60;82.00;;;;;;5020721;28;20022;-84
2022/10/03 03:37:52;;;;;;;10.63;5.57;;;17.60;82.30;;;;;;5018312;28;20053;-84
2022/10/03 03:40:31;;;;;;;13.20;5.22;;;17.60;82.20;;;;;;5009472;28;20050;-85
2022/10/03 03:43:07;;;;;;;15.97;5.83;;;17.60;82.30;;;;;;4997492;28;20840;-84
2022/10/03 03:46:25;;;;;;;15.60;5.03;;;17.60;82.30;;;;;;4983131;28;20142;-84
2022/10/03 03:48:54;;;;;;;19.33;6.57;;;17.50;82.60;;;;;;4977963;28;20038;-84
2022/10/03 03:51:22;;;;;;;14.70;7.43;;;17.50;82.60;;;;;;5000591;28;20027;-84
2022/10/03 03:53:54;;;;;;;18.23;6.35;;;17.50;82.50;;;;;;4996977;28;20747;-84
2022/10/03 03:56:45;;;;;;;16.15;6.47;;;17.50;82.50;;;;;;5006547;28;20041;-84
2022/10/03 03:59:20;;;;;;;14.38;5.85;;;17.50;82.60;;;;;;4999650;28;20091;-84
2022/10/03 04:01:58;;;;;;;11.60;5.25;;;17.40;83.00;;;;;;4996504;28;20093;-83
2022/10/03 04:05:01;;;;;;;13.82;5.68;;;17.50;83.00;;;;;;4997308;28;20031;-83
2022/10/03 04:07:56;;;;;;;13.77;6.00;;;17.50;83.00;;;;;;5016749;28;20076;-83
2022/10/03 04:10:43;;;;;;;15.00;6.35;;;17.50;83.10;;;;;;5017600;28;20060;-84
2022/10/03 04:13:31;;;;;;;10.38;5.70;;;17.50;83.00;;;;;;5016725;28;20022;-84
2022/10/03 04:19:15;;;;;;;12.63;5.75;;;17.50;82.80;;;;;;5018654;28;20060;-84
2022/10/03 04:22:10;;;;;;;10.13;5.10;;;17.40;82.80;;;;;;5016771;28;20037;-84
2022/10/03 04:25:04;;;;;;;10.82;5.30;;;17.30;83.00;;;;;;5002560;28;20048;-84
2022/10/03 04:27:40;;;;;;;8.48;4.70;;;17.30;82.90;;;;;;5016796;28;20960;-84
2022/10/03 04:30:17;;;;;;;8.13;3.90;;;17.00;83.00;;;;;;5017731;28;20571;-81
2022/10/03 04:33:01;;;;;;;10.02;4.18;;;16.90;84.10;;;;;;4996539;28;20038;-88
2022/10/03 04:36:12;;;;;;;9.25;5.00;;;17.00;84.10;;;;;;4997852;28;20065;-84
2022/10/03 04:39:07;;;;;;;9.85;4.32;;;17.00;83.70;;;;;;4996216;28;20025;-81
2022/10/03 04:41:50;;;;;;;10.73;4.25;;;17.00;83.90;;;;;;4997277;28;20018;-82
2022/10/03 04:44:33;;;;;;;9.85;5.10;;;17.10;83.50;;;;;;5003600;28;20030;-83
2022/10/03 04:47:51;;;;;;;9.65;4.78;;;17.20;83.30;;;;;;5016527;28;20026;-80
2022/10/03 04:50:37;;;;;;;7.43;3.83;;;17.30;83.00;;;;;;4970960;28;20039;-80
2022/10/03 04:53:38;;;;;;;12.10;5.03;;;17.30;82.80;;;;;;4997116;28;20513;-77
2022/10/03 04:56:23;;;;;;;9.02;3.90;;;17.30;82.80;;;;;;4995083;28;20552;-78
2022/10/03 04:59:21;;;;;;;7.07;4.38;;;17.20;82.60;;;;;;4996316;28;20041;-78
2022/10/03 05:01:54;;;;;;;11.25;4.20;;;17.20;82.90;;;;;;4998100;28;20070;-82
2022/10/03 05:04:32;;;;;;;8.40;4.50;;;17.20;82.80;;;;;;5011041;28;20026;-81
2022/10/03 05:07:17;;;;;;;7.03;4.43;;;17.20;82.70;;;;;;4994383;28;20041;-81
2022/10/03 05:10:03;;;;;;;9.35;4.43;;;17.20;82.80;;;;;;4998303;28;20080;-82
2022/10/03 05:12:50;;;;;;;8.68;4.43;;;17.20;82.80;;;;;;5016641;28;20547;-82
2022/10/03 05:15:21;;;;;;;12.38;5.43;;;17.20;83.00;;;;;;4996139;28;20026;-81
2022/10/03 05:18:46;;;;;;;8.52;4.20;;;17.20;82.90;;;;;;5016386;28;20469;-78
2022/10/03 05:21:32;;;;;;;9.45;4.05;;;17.20;82.80;;;;;;4915131;29;20438;-88
2022/10/03 05:24:01;;;;;;;7.70;4.10;;;17.20;82.80;;;;;;4914629;29;20064;-81
2022/10/03 05:26:38;;;;;;;9.00;4.07;;;17.20;82.70;;;;;;4968540;28;20149;-80
2022/10/03 05:29:26;;;;;;;7.28;4.50;;;17.10;82.90;;;;;;5013941;28;20137;-81
2022/10/03 05:32:15;;;;;;;7.82;4.03;;;17.20;82.80;;;;;;5007371;28;20030;-80
2022/10/03 05:34:59;;;;;;;8.98;4.20;;;17.20;82.70;;;;;;4978952;28;20434;-81
2022/10/03 05:37:51;;;;;;;10.00;4.75;;;17.20;82.60;;;;;;5012129;28;20030;-81
2022/10/03 05:40:27;;;;;;;14.30;5.00;;;17.20;82.70;;;;;;5011693;28;20034;-81
2022/10/03 05:43:12;;;;;;;8.55;4.50;;;17.20;82.70;;;;;;5002639;28;20114;-81
2022/10/03 05:45:44;;;;;;;10.15;4.57;;;17.20;82.60;;;;;;5001912;28;20035;-81
2022/10/03 05:48:30;;;;;;;8.27;4.35;;;17.20;82.80;;;;;;5004715;28;20133;-83
2022/10/03 05:51:11;;;;;;;7.30;4.30;;;17.10;82.80;;;;;;5003861;28;20039;-82
2022/10/03 05:54:07;;;;;;;8.18;4.03;;;17.10;82.90;;;;;;5002947;28;20052;-82
2022/10/03 05:57:01;;;;;;;7.57;3.83;;;17.00;83.10;;;;;;5018845;28;20500;-82
2022/10/03 05:59:54;;;;;;;9.55;4.20;;;17.00;83.50;;;;;;4995687;28;20394;-82
2022/10/03 06:02:57;;;;;;;7.30;4.38;;;17.00;83.60;;;;;;4977985;28;20709;-82
2022/10/03 06:05:58;;;;;;;10.75;5.07;;;16.90;83.70;;;;;;5001819;28;20025;-82
2022/10/03 06:08:48;;;;;;;10.63;5.10;;;17.00;83.50;;;;;;4936592;29;20886;-82
2022/10/03 06:11:51;;;;;;;7.72;4.63;;;17.00;83.40;;;;;;5001395;28;20108;-83
2022/10/03 06:14:56;;;;;;;12.13;5.03;;;17.10;83.40;;;;;;4996351;28;20026;-83
2022/10/03 06:17:57;;;;;;;11.75;5.18;;;16.90;83.60;;;;;;4939588;28;20129;-82
2022/10/03 06:20:44;;;;;;;12.55;5.50;;;16.90;84.10;;;;;;4983152;28;20039;-83
2022/10/03 06:23:28;;;;;;;11.52;6.40;;;17.00;83.90;;;;;;5007725;28;20046;-82
2022/10/03 06:26:35;;;;;;;12.90;6.40;;;16.90;84.00;;;;;;5015491;28;20834;-82
2022/10/03 06:29:19;;;;;;;12.10;5.80;;;17.00;84.00;;;;;;5015125;28;20022;-83
2022/10/03 06:32:00;;;;;;;14.73;6.38;;;17.10;84.00;;;;;;5014434;28;20033;-82
2022/10/03 06:35:10;;;;;;;11.50;5.68;;;17.00;84.10;;;;;;5015871;28;20145;-82
2022/10/03 06:37:39;;;;;;;12.57;5.72;;;17.10;84.00;;;;;;5008445;28;20113;-83
2022/10/03 06:40:42;;;;;;;11.57;5.60;;;17.20;83.90;;;;;;4995725;28;20022;-83
2022/10/03 06:43:28;;;;;;;12.02;5.50;;;17.00;84.20;;;;;;4995699;28;20062;-82
2022/10/03 06:46:03;;;;;;;12.77;5.82;;;17.00;84.30;;;;;;4994190;28;20117;-82
2022/10/03 06:48:32;;;;;;;11.70;5.28;;;17.10;84.40;;;;;;4995954;28;20029;-81
2022/10/03 06:51:16;;;;;;;11.68;4.70;;;17.20;84.20;;;;;;4995804;28;20022;-82
2022/10/03 06:53:53;;;;;;;11.07;5.00;;;17.20;84.10;;;;;;4996541;28;20719;-82
2022/10/03 06:56:37;;;;;;;10.32;5.38;;;17.20;84.20;;;;;;4996016;28;20058;-83
2022/10/03 06:59:21;;;;;;;9.43;4.43;;;17.30;84.10;;;;;;4996602;28;20057;-82
2022/10/03 07:02:31;;;;;;;8.77;4.60;;;17.20;84.40;;;;;;4998411;28;20026;-82
2022/10/03 07:05:18;;;;;;;9.40;4.32;;;17.20;84.30;;;;;;4938609;29;20552;-82
2022/10/03 07:08:16;;;;;;;9.13;4.47;;;17.10;84.70;;;;;;4995501;28;20042;-82
2022/10/03 07:11:06;;;;;;;8.00;3.85;;;17.20;84.70;;;;;;4992599;28;20134;-82
2022/10/03 07:13:55;;;;;;;6.90;3.55;;;17.20;84.80;;;;;;4987830;28;20060;-82
2022/10/03 07:16:45;;;;;;;8.02;3.92;;;17.20;84.60;;;;;;4981727;28;20558;-81
2022/10/03 07:19:29;;;;;;;6.78;3.90;;;17.30;84.50;;;;;;4999859;28;20026;-82
2022/10/03 07:22:32;;;;;;;8.93;3.88;;;17.30;84.30;;;;;;5009474;28;20416;-82
2022/10/03 07:25:36;;;;;;;5.97;3.60;;;17.40;84.30;;;;;;5017772;28;20046;-82
2022/10/03 07:28:26;;;;;;;5.65;3.83;;;17.30;84.30;;;;;;5018259;28;20080;-81
2022/10/03 07:31:50;;;;;;;6.63;3.30;;;17.40;84.30;;;;;;5018232;28;20026;-82
2022/10/03 07:34:57;;;;;;;7.75;4.00;;;17.50;83.80;;;;;;4903098;29;20056;-83
2022/10/03 07:41:20;;;;;;;6.03;3.30;;;17.40;84.10;;;;;;4986311;28;20041;-82
2022/10/03 07:44:34;;;;;;;8.32;3.17;;;17.50;84.10;;;;;;5018295;28;20018;-82
2022/10/03 07:47:33;;;;;;;5.57;3.40;;;17.60;84.00;;;;;;5018502;28;20034;-82
2022/10/03 07:50:24;;;;;;;5.47;3.00;;;17.60;83.70;;;;;;5018139;28;20481;-82
2022/10/03 07:53:00;;;;;;;6.28;3.50;;;17.70;83.90;;;;;;5016608;28;20145;-82
2022/10/03 07:56:01;;;;;;;9.70;2.85;;;17.70;83.70;;;;;;4999207;28;20026;-82
2022/10/03 07:58:37;;;;;;;9.70;3.50;;;17.70;83.70;;;;;;4959966;28;20041;-82
2022/10/03 08:01:21;;;;;;;8.65;3.22;;;17.60;83.90;;;;;;5000299;28;20029;-82
2022/10/03 08:04:31;;;;;;;6.47;3.28;;;17.70;83.80;;;;;;4991141;28;20034;-82
2022/10/03 08:07:08;;;;;;;6.05;2.70;;;17.70;83.40;;;;;;4979244;28;20078;-82
2022/10/03 08:09:36;;;;;;;6.93;3.38;;;17.60;84.00;;;;;;4997054;28;20041;-82
2022/10/03 08:12:53;;;;;;;7.25;4.13;;;17.70;83.90;;;;;;5004887;28;20033;-82
2022/10/03 08:15:28;;;;;;;9.75;4.03;;;17.70;83.80;;;;;;4918755;29;20036;-82
2022/10/03 08:18:28;;;;;;;6.90;3.05;;;17.80;83.60;;;;;;4918831;29;20166;-82
2022/10/03 08:21:52;;;;;;;10.87;2.80;;;17.80;83.50;;;;;;4994023;28;20049;-82
2022/10/03 08:24:39;;;;;;;8.60;3.33;;;17.90;83.30;;;;;;4886365;29;20123;-82
2022/10/03 08:27:28;;;;;;;5.22;2.70;;;18.00;83.00;;;;;;5012579;28;20098;-82
2022/10/03 08:30:14;;;;;;;6.32;2.97;;;17.90;83.10;;;;;;5025172;28;20079;-82
2022/10/03 08:33:03;;;;;;;11.18;3.08;;;18.00;83.10;;;;;;5019661;28;20108;-82
2022/10/03 08:35:41;;;;;;;5.10;3.25;;;18.00;82.90;;;;;;5008008;28;20105;-82
2022/10/03 08:38:15;;;;;;;8.02;3.25;;;18.00;83.00;;;;;;4997844;28;20045;-82
2022/10/03 08:40:55;;;;;;;9.48;4.05;;;18.00;82.90;;;;;;5011025;28;20067;-82
2022/10/03 08:43:40;;;;;;;;;;;17.90;83.30;;;;;;5017615;28;20083;-82
2022/10/03 08:46:42;;;;;;;6.55;3.17;;;18.00;83.00;;;;;;5015376;28;19921;-82
2022/10/03 08:49:45;;;;;;;6.82;3.15;;;17.80;82.90;;;;;;5017443;28;20022;-82
2022/10/03 08:52:49;;;;;;;6.22;2.63;;;17.90;83.40;;;;;;5000146;28;20030;-82
2022/10/03 08:55:57;;;;;;;7.68;3.03;;;18.00;83.30;;;;;;4996015;28;20025;-82
2022/10/03 08:58:25;;;;;;;8.85;3.20;;;18.10;83.20;;;;;;4989230;28;20112;-82
2022/10/03 09:01:34;;;;;;;7.25;3.22;;;18.20;83.00;;;;;;4996425;28;20039;-81
2022/10/03 09:04:10;;;;;;;11.20;3.92;;;18.20;82.90;;;;;;5017064;28;20116;-82
2022/10/03 09:06:51;;;;;;;9.27;3.08;;;18.30;82.60;;;;;;5016615;28;20026;-82
2022/10/03 09:10:06;;;;;;;4.78;2.72;;;18.30;82.60;;;;;;4981592;28;20027;-82
2022/10/03 09:13:12;;;;;;;8.73;3.40;;;18.40;82.80;;;;;;5014277;28;20018;-81
2022/10/03 09:15:57;;;;;;;4.88;2.35;;;18.40;82.60;;;;;;5016131;28;20030;-82
2022/10/03 09:18:28;;;;;;;6.22;2.83;;;18.40;82.40;;;;;;5000983;28;20103;-81
2022/10/03 09:20:54;;;;;;;7.00;3.30;;;18.50;82.50;;;;;;5016513;28;20045;-81
2022/10/03 09:23:44;;;;;;;6.05;3.13;;;18.40;82.40;;;;;;5013898;28;20042;-81
2022/10/03 09:26:22;;;;;;;9.82;3.45;;;18.50;81.90;;;;;;4979943;28;20034;-81
2022/10/03 09:29:12;;;;;;;9.90;4.32;;;18.50;81.60;;;;;;4979685;28;20104;-81
2022/10/03 09:32:11;;;;;;;8.20;4.05;;;18.70;81.70;;;;;;4996714;28;20057;-82
2022/10/03 09:35:17;;;;;;;10.95;3.83;;;18.80;81.20;;;;;;5012238;28;20026;-82
2022/10/03 09:38:00;;;;;;;8.77;3.35;;;18.90;81.00;;;;;;5009635;28;20137;-83
2022/10/03 09:41:14;;;;;;;5.78;3.22;;;18.90;80.30;;;;;;4995614;28;20062;-81
2022/10/03 09:43:48;;;;;;;5.55;3.45;;;19.20;80.00;;;;;;4996322;28;20113;-82
2022/10/03 09:47:21;;;;;;;5.57;2.72;;;19.30;79.30;;;;;;5012487;28;20570;-82
2022/10/03 09:49:59;;;;;;;5.75;2.90;;;19.30;79.10;;;;;;5004869;28;20501;-83
2022/10/03 09:53:17;;;;;;;4.88;2.30;;;19.50;79.00;;;;;;5008708;28;20029;-82
2022/10/03 09:56:09;;;;;;;5.57;2.03;;;19.40;78.50;;;;;;4983119;28;20382;-82
2022/10/03 09:58:54;;;;;;;10.68;2.90;;;19.30;78.30;;;;;;4970263;28;20044;-81
2022/10/03 10:01:45;;;;;;;6.97;1.77;;;19.30;78.50;;;;;;5015616;28;20022;-82
2022/10/03 10:04:33;;;;;;;7.45;2.30;;;19.40;78.60;;;;;;5015447;28;20464;-81
2022/10/03 10:07:17;;;;;;;6.55;1.77;;;19.40;78.50;;;;;;4998302;28;20038;-81
2022/10/03 10:10:24;;;;;;;3.47;2.10;;;19.30;78.60;;;;;;5010617;28;20034;-80
2022/10/03 10:13:17;;;;;;;4.05;1.85;;;19.30;78.50;;;;;;4995763;28;20037;-81
2022/10/03 10:16:07;;;;;;;4.10;1.98;;;19.40;78.40;;;;;;4996606;28;20036;-80
2022/10/03 10:18:41;;;;;;;3.78;2.25;;;19.50;78.10;;;;;;4994841;28;20026;-80
2022/10/03 10:21:36;;;;;;;5.75;1.90;;;19.60;77.60;;;;;;5003433;28;20547;-81
2022/10/03 10:24:10;;;;;;;5.15;1.85;;;19.80;76.80;;;;;;5015468;28;20448;-81
2022/10/03 10:26:58;;;;;;;3.17;1.50;;;19.70;77.60;;;;;;5014782;28;20115;-80
2022/10/03 10:29:30;;;;;;;5.20;1.85;;;19.60;76.80;;;;;;5015607;28;20034;-80
2022/10/03 10:31:58;;;;;;;3.28;1.50;;;19.70;76.70;;;;;;5004266;28;20086;-80
2022/10/03 10:34:58;;;;;;;2.35;1.30;;;19.70;76.30;;;;;;4999856;28;20022;-80
2022/10/03 10:37:35;;;;;;;3.22;1.67;;;19.80;76.50;;;;;;5018862;28;20033;-79
2022/10/03 10:40:20;;;;;;;4.38;1.75;;;20.00;76.20;;;;;;5018128;28;20049;-78
2022/10/03 10:43:18;;;;;;;2.20;1.23;;;20.00;75.00;;;;;;5018523;28;20028;-81
2022/10/03 10:46:23;;;;;;;2.40;1.30;;;19.90;75.50;;;;;;5018813;28;20061;-83
2022/10/03 10:49:26;;;;;;;6.93;1.50;;;19.90;75.10;;;;;;5026845;28;20083;-81
2022/10/03 10:52:20;;;;;;;4.03;1.73;;;19.80;75.30;;;;;;5019016;28;20026;-81
2022/10/03 10:55:29;;;;;;;4.35;1.90;;;19.90;75.80;;;;;;4999774;28;20030;-81
2022/10/03 10:58:13;;;;;;;3.43;1.30;;;20.00;75.40;;;;;;4999667;28;20096;-81
2022/10/03 11:01:12;;;;;;;4.60;1.52;;;20.20;75.30;;;;;;5013266;28;20026;-81
2022/10/03 11:03:56;;;;;;;3.05;1.70;;;20.20;74.90;;;;;;5018554;28;20022;-81
2022/10/03 11:06:53;;;;;;;4.85;1.92;;;20.20;75.10;;;;;;5001457;28;20477;-81
2022/10/03 11:10:02;;;;;;;4.65;1.60;;;20.30;74.70;;;;;;5018019;28;20061;-81
2022/10/03 11:12:31;;;;;;;3.97;1.75;;;20.30;74.00;;;;;;5018150;28;20120;-81
2022/10/03 11:15:46;;;;;;;3.63;1.80;;;20.40;73.90;;;;;;5018097;28;20481;-81
2022/10/03 11:18:31;;;;;;;6.10;1.77;;;20.40;73.90;;;;;;5017529;28;20752;-81
2022/10/03 11:21:20;;;;;;;3.50;1.70;;;20.40;73.40;;;;;;5016691;28;20029;-81
2022/10/03 11:24:23;;;;;;;3.80;2.10;;;20.30;73.10;;;;;;5016958;28;20243;-80
2022/10/03 11:27:31;;;;;;;2.13;1.52;;;20.30;73.70;;;;;;4999941;28;20102;-81
2022/10/03 11:30:03;;;;;;;3.97;1.67;;;20.30;73.90;;;;;;4981580;28;20413;-80
2022/10/03 11:32:47;;;;;;;3.08;1.55;;;20.40;74.20;;;;;;5000747;28;20054;-82
2022/10/03 11:35:34;;;;;;;4.65;1.65;;;20.60;73.70;;;;;;5018554;28;20098;-82
2022/10/03 11:38:24;;;;;;;4.43;1.92;;;20.70;73.10;;;;;;5017832;28;20488;-83
2022/10/03 11:41:14;;;;;;;4.72;1.98;;;20.80;72.60;;;;;;5014081;28;20499;-84
2022/10/03 11:43:55;;;;;;;3.65;1.67;;;20.80;72.70;;;;;;5017146;28;20033;-83
2022/10/03 11:46:27;;;;;;;3.13;1.65;;;20.80;72.80;;;;;;5017107;28;20026;-82
2022/10/03 11:49:05;;;;;;;4.20;1.63;;;20.80;73.00;;;;;;5016591;28;20037;-83
2022/10/03 11:51:56;;;;;;;4.57;1.83;;;20.90;72.70;;;;;;5016292;28;20029;-83
2022/10/03 11:54:24;;;;;;;4.30;1.83;;;21.10;72.10;;;;;;4993663;28;20042;-83
2022/10/03 11:57:02;;;;;;;4.85;2.53;;;21.10;71.70;;;;;;4998439;28;20466;-83
2022/10/03 11:59:37;;;;;;;8.18;3.58;;;21.10;71.60;;;;;;5015962;28;20042;-83
2022/10/03 12:02:12;;;;;;;7.55;3.63;;;21.10;71.30;;;;;;5016872;28;20036;-83
2022/10/03 12:05:06;;;;;;;8.50;3.50;;;21.10;71.30;;;;;;5016701;28;20033;-84
2022/10/03 12:10:59;;;;;;;6.63;3.58;;;21.20;70.70;;;;;;5014566;28;20132;-83
2022/10/03 12:13:46;;;;;;;6.10;3.22;;;21.20;70.60;;;;;;5015667;28;20084;-83
2022/10/03 12:16:26;;;;;;;8.05;3.38;;;21.10;70.30;;;;;;5001347;28;20042;-82
2022/10/03 12:18:59;;;;;;;7.25;2.75;;;21.10;70.30;;;;;;4998443;28;20026;-82
2022/10/03 12:21:56;;;;;;;3.40;2.13;;;21.20;71.10;;;;;;5007135;28;20040;-82
2022/10/03 12:24:30;;;;;;;3.45;2.10;;;21.30;70.70;;;;;;4985326;28;20050;-82
2022/10/03 12:27:02;;;;;;;8.68;2.58;;;21.40;70.20;;;;;;4997784;28;20049;-82
2022/10/03 12:29:31;;;;;;;2.75;1.50;;;21.30;69.60;;;;;;5011784;28;20030;-82
2022/10/03 12:32:15;;;;;;;2.63;1.60;;;21.50;69.90;;;;;;4997692;28;20025;-83
2022/10/03 12:35:13;;;;;;;4.50;1.90;;;21.60;69.60;;;;;;4997880;28;20023;-82
2022/10/03 12:38:02;;;;;;;3.15;1.67;;;21.40;69.10;;;;;;4994314;28;20517;-83
2022/10/03 12:40:33;;;;;;;4.15;1.70;;;21.40;68.80;;;;;;4980524;28;20065;-83
2022/10/03 12:44:03;;;;;;;7.30;2.17;;;21.40;68.60;;;;;;5002044;28;20033;-82
2022/10/03 12:46:42;;;;;;;3.60;1.73;;;21.50;68.60;;;;;;4985470;28;20125;-82
2022/10/03 12:49:31;;;;;;;2.75;1.48;;;21.40;68.80;;;;;;5017164;28;20026;-82
2022/10/03 12:52:01;;;;;;;6.30;1.70;;;21.60;69.60;;;;;;4998576;28;20860;-82
2022/10/03 12:54:48;;;;;;;2.35;1.33;;;21.70;69.00;;;;;;4999461;28;20033;-82
2022/10/03 12:57:44;;;;;;;3.95;1.73;;;21.70;68.60;;;;;;4999458;28;20108;-82
2022/10/03 13:00:43;;;;;;;2.35;1.67;;;21.60;68.40;;;;;;4996590;28;20065;-82
2022/10/03 13:03:20;;;;;;;3.05;1.60;;;21.50;68.40;;;;;;4978893;28;20030;-84
2022/10/03 13:06:07;;;;;;;4.00;2.03;;;21.50;68.60;;;;;;4999900;28;20041;-82
2022/10/03 13:08:42;;;;;;;2.70;1.83;;;21.50;68.70;;;;;;4983538;28;20548;-82
2022/10/03 13:11:37;;;;;;;2.92;1.83;;;21.50;68.80;;;;;;5002785;28;20081;-83
2022/10/03 13:14:08;;;;;;;4.47;1.65;;;21.80;67.90;;;;;;5016371;28;20026;-82
2022/10/03 13:16:38;;;;;;;3.80;2.40;;;21.80;67.50;;;;;;5016602;28;20108;-82
2022/10/03 13:19:18;;;;;;;3.08;1.88;;;21.70;67.50;;;;;;5017048;28;20052;-82
2022/10/03 13:22:10;;;;;;;2.42;1.30;;;21.50;67.60;;;;;;5011093;28;20034;-82
2022/10/03 13:24:48;;;;;;;2.85;1.73;;;21.30;68.40;;;;;;4998754;28;20131;-84
2022/10/03 13:27:23;;;;;;;3.30;1.80;;;21.30;68.20;;;;;;4998879;28;20033;-82
2022/10/03 13:29:55;;;;;;;3.00;1.30;;;21.30;68.30;;;;;;5015571;28;20394;-83
2022/10/03 13:32:38;;;;;;;4.05;1.92;;;21.30;68.10;;;;;;4987455;28;20030;-83
2022/10/03 13:38:38;;;;;;;4.22;1.35;;;21.00;68.50;;;;;;4997485;28;20053;-83
2022/10/03 13:41:25;;;;;;;1.40;1.10;;;21.10;68.70;;;;;;4979287;28;20034;-83
2022/10/03 13:44:24;;;;;;;2.55;1.30;;;21.20;67.90;;;;;;4996921;28;20034;-83
2022/10/03 13:46:55;;;;;;;1.42;0.90;;;21.30;67.90;;;;;;4992944;28;20130;-83
2022/10/03 13:49:42;;;;;;;1.30;0.90;;;21.40;67.90;;;;;;5015358;28;20103;-82
2022/10/03 13:52:17;;;;;;;1.77;1.13;;;21.40;67.10;;;;;;5009384;28;20528;-82
2022/10/03 13:54:54;;;;;;;1.42;0.85;;;21.50;67.70;;;;;;5018224;28;20029;-83
2022/10/03 13:57:27;;;;;;;2.08;0.80;;;21.60;67.80;;;;;;5035653;28;20055;-83
2022/10/03 14:00:13;;;;;;;1.50;0.82;;;21.60;66.90;;;;;;5002323;28;20022;-83
2022/10/03 14:03:17;;;;;;;3.55;0.90;;;21.60;67.00;;;;;;4996177;28;20491;-84
2022/10/03 14:05:48;;;;;;;1.23;0.77;;;21.60;67.00;;;;;;4995833;28;20788;-84
2022/10/03 14:08:50;;;;;;;1.30;0.70;;;21.70;67.20;;;;;;4996750;28;20442;-83
2022/10/03 14:11:21;;;;;;;2.38;0.77;;;21.70;67.00;;;;;;4985378;28;20033;-84
2022/10/03 14:14:01;;;;;;;1.33;0.65;;;21.60;66.30;;;;;;4997980;28;20032;-83
2022/10/03 14:16:35;;;;;;;1.55;0.73;;;21.30;67.00;;;;;;4995060;28;20065;-83
2022/10/03 14:19:29;;;;;;;2.67;0.80;;;21.20;67.50;;;;;;4996427;28;20022;-83
2022/10/03 14:22:22;;;;;;;1.38;0.80;;;21.20;67.80;;;;;;4997821;28;20069;-84
2022/10/03 14:25:02;;;;;;;2.08;0.77;;;21.40;67.30;;;;;;4978982;28;20046;-84
2022/10/03 14:27:30;;;;;;;1.48;0.80;;;21.60;66.80;;;;;;4979342;28;20045;-84
2022/10/03 14:30:08;;;;;;;3.20;1.08;;;21.70;65.70;;;;;;5014620;28;20038;-84
2022/10/03 14:32:54;;;;;;;2.42;1.20;;;21.70;65.80;;;;;;5001789;28;20029;-84
2022/10/03 14:35:36;;;;;;;1.85;0.88;;;21.70;66.20;;;;;;4996050;28;20030;-84
2022/10/03 14:38:15;;;;;;;1.50;0.80;;;21.80;65.70;;;;;;4995866;28;20033;-84
2022/10/03 14:40:49;;;;;;;1.52;0.70;;;21.80;65.90;;;;;;5005502;28;20029;-84
2022/10/03 14:43:21;;;;;;;1.48;0.85;;;21.80;65.80;;;;;;4997314;28;20080;-84
2022/10/03 14:45:51;;;;;;;1.30;0.68;;;21.70;65.60;;;;;;5015320;28;20092;-83